CDT,Max TemperatureF,Mean TemperatureF,Min TemperatureF,Max Dew PointF,MeanDew PointF,Min DewpointF,Max Humidity, Mean Humidity, Min Humidity, Max Sea Level PressureIn, Mean Sea Level PressureIn, Min Sea Level PressureIn, Max VisibilityMiles, Mean VisibilityMiles, Min VisibilityMiles, Max Wind SpeedMPH, Mean Wind SpeedMPH, Max Gust SpeedMPH,PrecipitationIn, CloudCover, Events, WindDirDegrees
2013-10-1,84,68,53,61,55,50,89,66,38,29.91,29.84,29.76,10,10,7,15,10,17,0.00,0,,148
2013-10-2,84,73,64,66,64,59,87,71,54,29.88,29.82,29.73,10,10,10,25,16,32,0.00,2,,158
2013-10-3,91,78,66,66,62,50,94,65,24,29.75,29.66,29.55,10,10,10,25,15,29,0.00,2,,157
2013-10-4,82,64,45,64,51,29,76,56,39,30.05,29.72,29.55,10,10,10,28,21,36,0.00,0,,243
2013-10-5,60,52,43,31,30,28,62,48,32,30.09,30.05,30.00,10,10,10,28,17,37,0.00,1,,294
2013-10-6,70,57,44,32,28,24,55,38,19,30.11,30.04,30.00,10,10,4,24,17,34,0.00,0,,312
2013-10-7,78,58,37,38,35,32,83,48,21,30.18,30.09,29.99,10,10,10,18,7,21,0.00,0,,212
2013-10-8,82,68,54,44,39,35,55,40,21,29.98,29.89,29.81,10,10,10,33,20,46,0.00,0,,170
2013-10-9,84,70,55,49,46,43,72,48,24,29.88,29.85,29.81,10,10,10,25,21,36,0.00,0,,165
2013-10-10,86,70,57,56,53,50,75,55,33,29.88,29.78,29.64,10,10,10,33,22,43,0.00,0,Thunderstorm,168
2013-10-11,75,63,51,59,49,41,93,65,30,29.96,29.73,29.60,10,9,3,24,15,33,0.49,2,Rain-Thunderstorm,250
2013-10-12,68,56,46,44,38,33,83,56,28,30.27,30.15,29.97,10,10,5,14,8,21,0.00,0,,26
2013-10-13,72,57,42,49,40,32,76,54,26,30.35,30.24,30.14,10,10,10,22,11,30,0.00,2,,119
2013-10-14,64,57,48,61,56,41,94,86,64,30.13,29.91,29.71,10,8,2,30,19,39,0.22,7,Rain-Thunderstorm,166
2013-10-15,57,49,39,40,35,33,82,65,44,30.21,30.11,29.98,10,10,10,28,15,36,0.00,2,,317
2013-10-16,54,44,34,36,33,31,93,71,43,30.20,30.13,30.03,10,10,10,13,7,17,0.00,2,,266
2013-10-17,64,50,36,37,35,33,89,66,35,30.12,30.03,29.98,10,10,10,18,10,30,0.00,0,,305
2013-10-18,41,37,33,37,33,30,100,91,79,30.24,30.16,30.11,,,,14,8,,0.36,6,Rain-Snow,271
2013-10-19,66,48,30,38,34,28,89,65,27,30.13,30.01,29.88,10,10,10,16,10,23,0.00,0,,243
2013-10-20,68,52,37,41,37,33,83,59,34,30.04,29.87,29.81,10,10,10,17,11,24,0.00,1,,300
2013-10-21,63,48,34,37,34,31,89,64,31,30.17,30.09,30.02,10,10,10,17,8,23,0.00,1,,274
2013-10-22,68,57,42,41,39,36,79,55,36,30.12,30.04,29.97,10,10,10,20,10,25,0.00,2,,328
2013-10-23,70,52,34,42,37,32,92,66,33,30.21,30.11,30.01,10,10,10,17,9,24,0.00,0,,165
2013-10-24,53,42,32,37,31,26,97,70,38,30.44,30.37,30.23,10,10,7,13,6,,0.00,2,,46
2013-10-25,60,46,34,40,30,26,76,59,31,30.43,30.29,30.11,10,10,10,23,12,29,0.00,0,,177
2013-10-26,61,49,35,42,31,22,89,56,22,30.26,30.18,30.06,10,10,10,21,11,26,0.00,0,,344
2013-10-27,75,52,32,35,30,25,79,49,23,30.17,29.99,29.84,10,10,10,20,12,25,0.00,0,,197
2013-10-28,66,52,39,57,49,30,100,81,44,30.01,29.97,29.86,10,7,2,21,12,28,0.05,6,Rain,129
2013-10-29,59,51,44,57,53,42,100,96,93,30.01,29.93,29.88,10,4,0,13,8,,0.02,8,Fog-Rain,18
2013-10-30,48,44,39,45,43,37,96,92,83,29.96,29.87,29.78,10,6,2,13,7,18,0.05,7,Rain,355
2013-10-31,64,50,37,42,37,30,100,72,29,29.77,29.72,29.65,10,8,1,24,6,33,0.03,2,Rain,300